Time;durP1;ratioP1;P1;durP2;ratioP2;P2;SDS_P1;SDS_P2;PMS_P1;PMS_P2;Temp;Humidity;BMP_temperature;BMP_pressure;BME280_temperature;BME280_humidity;BME280_pressure;Samples;Min_cycle;Max_cycle;Signal;HPM_P1;HPM_P2
2022/01/14 00:01:56;;;;;;;;;;;1.90;91.00;;;;;;5018003;28;19955;-85
2022/01/14 00:04:22;;;;;;;;;;;1.90;91.00;;;;;;5017607;28;19973;-85
2022/01/14 00:06:48;;;;;;;;;;;1.90;91.10;;;;;;5016876;28;20391;-85
2022/01/14 00:09:15;;;;;;;;;;;1.90;91.10;;;;;;5005763;28;19949;-85
2022/01/14 00:11:45;;;;;;;;;;;1.80;91.10;;;;;;5015788;28;19941;-85
2022/01/14 00:16:39;;;;;;;;;;;1.80;91.10;;;;;;5017771;28;19910;-85
2022/01/14 00:19:05;;;;;;;;;;;1.80;91.10;;;;;;5017748;28;19910;-85
2022/01/14 00:21:33;;;;;;;;;;;1.80;91.10;;;;;;5017746;28;19916;-85
2022/01/14 00:24:12;;;;;;;;;;;1.70;91.10;;;;;;5017786;28;19910;-85
2022/01/14 00:31:42;;;;;;;;;;;1.70;91.40;;;;;;5017656;28;19917;-85
2022/01/14 00:32:21;;;;;;;;;;;1.70;91.10;;;;;;5022636;28;19913;-86
2022/01/14 00:34:47;;;;;;;;;;;1.60;91.10;;;;;;5017815;28;19933;-85
2022/01/14 00:37:14;;;;;;;;;;;1.60;91.10;;;;;;5016306;28;20376;-85
2022/01/14 00:39:40;;;;;;;;;;;1.60;91.10;;;;;;5017618;28;20012;-85
2022/01/14 00:42:07;;;;;;;;;;;1.60;91.10;;;;;;5017616;28;19910;-85
2022/01/14 00:44:32;;;;;;;;;;;1.60;91.10;;;;;;5018068;28;19913;-85
2022/01/14 00:47:01;;;;;;;;;;;1.50;91.30;;;;;;5025001;28;19909;-85
2022/01/14 00:49:27;;;;;;;;;;;1.60;91.30;;;;;;5016179;28;20345;-85
2022/01/14 00:51:52;;;;;;;;;;;1.60;91.30;;;;;;5017630;28;19945;-85
2022/01/14 00:54:18;;;;;;;;;;;1.60;91.30;;;;;;5017526;28;19910;-85
2022/01/14 00:56:48;;;;;;;;;;;1.60;91.50;;;;;;5017610;28;19909;-85
2022/01/14 00:59:15;;;;;;;;;;;1.60;91.70;;;;;;5017391;28;19971;-84
2022/01/14 01:01:44;;;;;;;;;;;1.60;92.10;;;;;;5017552;28;19965;-85
2022/01/14 01:04:13;;;;;;;;;;;1.70;92.40;;;;;;5017209;28;19909;-85
2022/01/14 01:06:39;;;;;;;;;;;1.80;92.60;;;;;;5017221;28;19909;-85
2022/01/14 01:09:15;;;;;;;;;;;1.90;92.80;;;;;;5005102;28;19937;-85
2022/01/14 01:12:07;;;;;;;;;;;1.90;93.00;;;;;;5017515;28;19957;-84
2022/01/14 01:14:41;;;;;;;;;;;2.00;93.10;;;;;;5017362;28;20447;-84
2022/01/14 01:17:07;;;;;;;;;;;2.00;93.20;;;;;;5017619;28;20304;-84
2022/01/14 01:19:32;;;;;;;;;;;2.10;93.20;;;;;;5017104;28;19909;-84
2022/01/14 01:21:58;;;;;;;;;;;2.10;93.20;;;;;;5017609;28;19910;-86
2022/01/14 01:24:24;;;;;;;;;;;2.10;93.20;;;;;;5020732;28;19909;-86
2022/01/14 01:26:51;;;;;;;;;;;2.20;93.20;;;;;;5020898;28;19945;-85
2022/01/14 01:29:32;;;;;;;;;;;2.20;93.10;;;;;;5020741;28;19910;-86
2022/01/14 01:31:58;;;;;;;;;;;2.20;93.10;;;;;;5023184;28;20399;-85
2022/01/14 01:34:24;;;;;;;;;;;2.20;93.10;;;;;;5024331;28;21086;-85
2022/01/14 01:36:51;;;;;;;;;;;2.20;93.10;;;;;;5020737;28;19917;-85
2022/01/14 01:39:18;;;;;;;;;;;2.20;93.00;;;;;;5020553;28;19923;-85
2022/01/14 01:41:47;;;;;;;;;;;2.20;92.90;;;;;;5020732;28;19960;-85
2022/01/14 01:44:14;;;;;;;;;;;2.20;92.90;;;;;;5020405;28;20399;-86
2022/01/14 01:46:42;;;;;;;;;;;2.20;93.10;;;;;;5025414;28;19916;-86
2022/01/14 01:49:08;;;;;;;;;;;2.20;92.80;;;;;;5022674;28;19976;-85
2022/01/14 01:51:34;;;;;;;;;;;2.20;92.80;;;;;;5020513;28;19940;-86
2022/01/14 01:54:00;;;;;;;;;;;2.10;93.10;;;;;;5020251;28;20431;-85
2022/01/14 01:56:26;;;;;;;;;;;2.10;92.80;;;;;;5020377;28;19992;-86
2022/01/14 01:58:51;;;;;;;;;;;2.10;92.80;;;;;;5020188;28;19914;-86
2022/01/14 02:01:17;;;;;;;;;;;2.10;92.60;;;;;;5020246;28;19933;-86
2022/01/14 02:03:43;;;;;;;;;;;2.10;92.60;;;;;;5018769;28;19995;-86
2022/01/14 02:06:08;;;;;;;;;;;2.00;92.60;;;;;;5019911;28;20000;-86
2022/01/14 02:08:34;;;;;;;;;;;2.00;92.60;;;;;;5007275;28;19913;-86
2022/01/14 02:11:00;;;;;;;;;;;2.00;92.60;;;;;;5018776;28;19933;-86
2022/01/14 02:13:26;;;;;;;;;;;1.90;92.50;;;;;;5019940;28;19909;-85
2022/01/14 02:18:48;;;;;;;;;;;1.90;92.50;;;;;;5019759;28;19913;-86
2022/01/14 02:25:06;;;;;;;;;;;1.80;92.30;;;;;;5020027;28;19917;-86
2022/01/14 02:26:54;;;;;;;;;;;1.80;92.30;;;;;;4998205;28;19984;-86
2022/01/14 02:29:21;;;;;;;;;;;1.80;92.30;;;;;;5018294;28;20427;-86
2022/01/14 02:31:46;;;;;;;;;;;1.80;92.40;;;;;;5020847;28;19909;-85
2022/01/14 02:34:13;;;;;;;;;;;1.80;92.40;;;;;;5023936;28;19920;-85
2022/01/14 02:36:42;;;;;;;;;;;1.80;92.40;;;;;;5019722;28;19963;-85
2022/01/14 02:39:08;;;;;;;;;;;1.70;92.40;;;;;;5018012;28;19916;-85
2022/01/14 02:41:35;;;;;;;;;;;1.70;92.30;;;;;;5019734;28;19910;-86
2022/01/14 02:44:04;;;;;;;;;;;1.70;92.30;;;;;;5019263;28;20456;-85
2022/01/14 02:46:36;;;;;;;;;;;1.70;92.30;;;;;;5022012;28;19924;-86
2022/01/14 02:49:02;;;;;;;;;;;1.70;92.20;;;;;;5020851;28;19916;-86
2022/01/14 02:51:28;;;;;;;;;;;1.60;92.20;;;;;;5019596;28;19909;-86
2022/01/14 02:53:59;;;;;;;;;;;1.60;92.20;;;;;;5019125;28;19917;-84
2022/01/14 02:56:30;;;;;;;;;;;1.60;92.20;;;;;;5019288;28;19909;-85
2022/01/14 02:58:57;;;;;;;;;;;1.50;92.10;;;;;;5019179;28;19913;-86
2022/01/14 03:01:24;;;;;;;;;;;1.50;92.10;;;;;;5018089;28;19917;-85
2022/01/14 03:03:54;;;;;;;;;;;1.50;92.10;;;;;;5018963;28;19944;-85
2022/01/14 03:06:19;;;;;;;;;;;1.50;92.10;;;;;;5017997;28;19910;-84
2022/01/14 03:08:45;;;;;;;;;;;1.40;92.10;;;;;;5006238;28;20328;-85
2022/01/14 03:11:15;;;;;;;;;;;1.40;92.40;;;;;;5018053;28;20276;-86
2022/01/14 03:13:40;;;;;;;;;;;1.40;92.10;;;;;;5018767;28;19932;-85
2022/01/14 03:16:06;;;;;;;;;;;1.40;92.10;;;;;;5019012;28;19909;-85
2022/01/14 03:18:41;;;;;;;;;;;1.30;92.00;;;;;;5018674;28;19936;-85
2022/01/14 03:21:10;;;;;;;;;;;1.30;92.10;;;;;;5018667;28;19909;-84
2022/01/14 03:23:43;;;;;;;;;;;1.30;92.00;;;;;;5019024;28;19910;-84
2022/01/14 03:26:09;;;;;;;;;;;1.30;92.00;;;;;;5018750;28;20609;-83
2022/01/14 03:28:34;;;;;;;;;;;1.20;92.00;;;;;;5018743;28;19909;-83
2022/01/14 03:31:00;;;;;;;;;;;1.20;91.90;;;;;;5018702;28;19945;-82
2022/01/14 03:33:25;;;;;;;;;;;1.20;92.00;;;;;;5023985;28;19952;-81
2022/01/14 03:35:51;;;;;;;;;;;1.20;92.00;;;;;;5018351;28;19941;-82
2022/01/14 03:38:18;;;;;;;;;;;1.20;92.10;;;;;;5018520;28;19917;-82
2022/01/14 03:40:43;;;;;;;;;;;1.20;92.30;;;;;;5018305;28;19949;-83
2022/01/14 03:43:10;;;;;;;;;;;1.20;92.40;;;;;;5018519;28;19973;-83
2022/01/14 03:45:38;;;;;;;;;;;1.20;92.40;;;;;;5018261;28;20273;-84
2022/01/14 03:48:03;;;;;;;;;;;1.30;92.60;;;;;;5026347;28;19977;-85
2022/01/14 03:50:29;;;;;;;;;;;1.30;92.70;;;;;;5018216;28;19918;-84
2022/01/14 03:52:55;;;;;;;;;;;1.30;92.90;;;;;;5018241;28;19960;-84
2022/01/14 03:55:21;;;;;;;;;;;1.30;93.10;;;;;;5018008;28;19909;-84
2022/01/14 03:57:46;;;;;;;;;;;1.30;93.10;;;;;;5018344;28;20364;-84
2022/01/14 04:00:12;;;;;;;;;;;1.40;93.20;;;;;;5017974;28;19917;-84
2022/01/14 04:02:38;;;;;;;;;;;1.40;93.20;;;;;;5018328;28;19945;-84
2022/01/14 04:05:04;;;;;;;;;;;1.50;93.20;;;;;;5017721;28;19910;-84
2022/01/14 04:07:29;;;;;;;;;;;1.50;93.20;;;;;;5009902;28;19909;-85
2022/01/14 04:09:55;;;;;;;;;;;1.60;93.20;;;;;;5012420;28;19914;-84
2022/01/14 04:12:33;;;;;;;;;;;1.60;93.10;;;;;;5017019;28;22228;-85
2022/01/14 04:17:24;;;;;;;;;;;1.70;93.10;;;;;;5018124;28;19936;-85
2022/01/14 04:19:50;;;;;;;;;;;1.80;93.30;;;;;;5020125;28;19909;-85
2022/01/14 04:22:15;;;;;;;;;;;1.80;93.40;;;;;;5028397;28;20000;-85
2022/01/14 04:24:41;;;;;;;;;;;1.90;93.50;;;;;;5017624;28;19914;-85
2022/01/14 04:27:07;;;;;;;;;;;1.90;93.60;;;;;;5017742;28;19925;-86
2022/01/14 04:29:32;;;;;;;;;;;1.90;93.70;;;;;;5017751;28;19932;-86
2022/01/14 04:31:59;;;;;;;;;;;2.00;93.80;;;;;;5020229;28;20028;-85
2022/01/14 04:34:24;;;;;;;;;;;2.00;93.80;;;;;;5020535;28;19945;-86
2022/01/14 04:36:52;;;;;;;;;;;2.10;93.80;;;;;;5018353;28;20139;-85
2022/01/14 04:39:17;;;;;;;;;;;2.10;93.80;;;;;;5026841;28;19917;-86
2022/01/14 04:41:43;;;;;;;;;;;2.10;93.90;;;;;;5017234;28;19947;-86
2022/01/14 04:44:09;;;;;;;;;;;2.10;93.90;;;;;;5016344;28;19956;-86
2022/01/14 04:46:48;;;;;;;;;;;2.10;94.10;;;;;;5021454;28;19913;-86
2022/01/14 04:49:14;;;;;;;;;;;2.10;93.90;;;;;;5027095;28;19918;-85
2022/01/14 04:51:40;;;;;;;;;;;2.20;93.90;;;;;;5017316;28;20008;-86
2022/01/14 04:54:05;;;;;;;;;;;2.20;93.80;;;;;;5016916;28;20004;-85
2022/01/14 04:56:32;;;;;;;;;;;2.20;93.80;;;;;;5017186;28;19936;-86
2022/01/14 04:58:58;;;;;;;;;;;2.20;93.80;;;;;;5019823;28;19918;-86
2022/01/14 05:01:24;;;;;;;;;;;2.20;93.70;;;;;;5021311;28;19913;-86
2022/01/14 05:03:49;;;;;;;;;;;2.20;93.70;;;;;;5020567;28;19967;-86
2022/01/14 05:06:15;;;;;;;;;;;2.20;93.80;;;;;;5020450;28;19940;-86
2022/01/14 05:08:40;;;;;;;;;;;2.30;93.80;;;;;;5019594;28;19909;-85
2022/01/14 05:11:23;;;;;;;;;;;2.30;93.80;;;;;;5020645;28;19924;-86
2022/01/14 05:13:49;;;;;;;;;;;2.30;93.80;;;;;;5020385;28;20402;-86
2022/01/14 05:16:15;;;;;;;;;;;2.30;93.70;;;;;;5020158;28;19909;-87
2022/01/14 05:18:40;;;;;;;;;;;2.30;93.70;;;;;;5019861;28;19917;-87
2022/01/14 05:21:06;;;;;;;;;;;2.30;93.70;;;;;;5019670;28;20025;-86
2022/01/14 05:23:32;;;;;;;;;;;2.30;93.70;;;;;;5019387;28;19914;-86
2022/01/14 05:25:58;;;;;;;;;;;2.30;93.80;;;;;;5019417;28;19928;-86
2022/01/14 05:28:23;;;;;;;;;;;2.30;93.80;;;;;;5019448;28;19937;-86
2022/01/14 05:30:49;;;;;;;;;;;2.30;93.80;;;;;;5029393;28;19913;-86
2022/01/14 05:33:16;;;;;;;;;;;2.30;93.70;;;;;;5022501;28;20312;-84
2022/01/14 05:35:41;;;;;;;;;;;2.30;93.60;;;;;;5020076;28;19909;-85
2022/01/14 05:38:07;;;;;;;;;;;2.30;93.60;;;;;;5020434;28;19920;-86
2022/01/14 05:40:33;;;;;;;;;;;2.30;93.60;;;;;;5020767;28;19913;-85
2022/01/14 05:42:59;;;;;;;;;;;2.30;93.60;;;;;;5018703;28;19913;-83
2022/01/14 05:45:25;;;;;;;;;;;2.30;93.60;;;;;;5019953;28;19913;-76
2022/01/14 05:47:50;;;;;;;;;;;2.30;93.60;;;;;;5028163;28;19913;-77
2022/01/14 05:50:17;;;;;;;;;;;2.30;93.50;;;;;;5018563;28;19959;-76
2022/01/14 05:52:43;;;;;;;;;;;2.20;93.50;;;;;;5015759;28;20323;-74
2022/01/14 05:55:10;;;;;;;;;;;2.20;93.50;;;;;;5018538;28;20012;-77
2022/01/14 05:57:38;;;;;;;;;;;2.20;93.50;;;;;;5018958;28;19918;-79
2022/01/14 06:00:08;;;;;;;;;;;2.20;93.50;;;;;;5020202;28;19920;-77
2022/01/14 06:02:33;;;;;;;;;;;2.20;93.50;;;;;;5019118;28;20372;-73
2022/01/14 06:04:59;;;;;;;;;;;2.20;93.50;;;;;;5019634;28;19917;-76
2022/01/14 06:07:25;;;;;;;;;;;2.10;93.40;;;;;;5017821;28;20296;-76
2022/01/14 06:09:50;;;;;;;;;;;2.20;93.40;;;;;;5017879;28;19914;-74
2022/01/14 06:12:16;;;;;;;;;;;2.10;93.40;;;;;;5019103;28;20290;-76
2022/01/14 06:14:42;;;;;;;;;;;2.10;93.60;;;;;;5018770;28;20315;-71
2022/01/14 06:17:07;;;;;;;;;;;2.10;93.30;;;;;;5019844;28;19914;-72
2022/01/14 06:19:33;;;;;;;;;;;2.10;93.30;;;;;;5019602;28;19917;-72
2022/01/14 06:21:58;;;;;;;;;;;2.10;93.30;;;;;;5018295;28;19914;-72
2022/01/14 06:24:24;;;;;;;;;;;2.10;93.20;;;;;;5008262;28;19914;-72
2022/01/14 06:26:50;;;;;;;;;;;2.10;93.10;;;;;;5017436;28;19928;-77
2022/01/14 06:29:15;;;;;;;;;;;2.00;93.10;;;;;;5013394;28;19913;-71
2022/01/14 06:31:41;;;;;;;;;;;1.90;92.90;;;;;;5010126;28;19913;-75
2022/01/14 06:34:07;;;;;;;;;;;1.90;92.90;;;;;;5020518;28;19913;-76
2022/01/14 06:36:32;;;;;;;;;;;1.80;92.90;;;;;;5019219;28;20005;-77
2022/01/14 06:38:58;;;;;;;;;;;1.80;92.90;;;;;;5013986;28;20423;-77
2022/01/14 06:41:24;;;;;;;;;;;1.70;92.80;;;;;;5015129;28;19920;-76
2022/01/14 06:43:49;;;;;;;;;;;1.70;92.80;;;;;;5018851;28;19914;-77
2022/01/14 06:46:15;;;;;;;;;;;1.60;92.80;;;;;;5020888;28;19963;-77
2022/01/14 06:48:40;;;;;;;;;;;1.60;92.80;;;;;;5028759;28;20063;-77
2022/01/14 06:51:12;;;;;;;;;;;1.50;92.70;;;;;;5018891;28;19963;-76
2022/01/14 06:53:38;;;;;;;;;;;1.50;92.70;;;;;;5013448;28;19921;-79
2022/01/14 06:56:04;;;;;;;;;;;1.40;92.70;;;;;;5017295;28;20284;-76
2022/01/14 06:58:29;;;;;;;;;;;1.40;92.70;;;;;;5020074;28;20008;-77
2022/01/14 07:00:55;;;;;;;;;;;1.40;92.70;;;;;;5018798;28;19913;-77
2022/01/14 07:03:20;;;;;;;;;;;1.30;92.70;;;;;;5018686;28;19920;-78
2022/01/14 07:05:46;;;;;;;;;;;1.30;92.80;;;;;;5017332;28;20389;-77
2022/01/14 07:08:12;;;;;;;;;;;1.30;92.80;;;;;;5014850;28;19948;-75
2022/01/14 07:10:37;;;;;;;;;;;1.20;92.70;;;;;;5018243;28;19933;-75
2022/01/14 07:13:04;;;;;;;;;;;1.20;92.80;;;;;;5014137;28;20393;-75
2022/01/14 07:15:30;;;;;;;;;;;1.20;92.80;;;;;;5014989;28;20419;-75
2022/01/14 07:17:56;;;;;;;;;;;1.20;92.80;;;;;;5029398;28;19913;-75
2022/01/14 07:20:22;;;;;;;;;;;1.10;92.80;;;;;;5017067;28;19913;-75
2022/01/14 07:22:47;;;;;;;;;;;1.10;92.80;;;;;;5017235;28;19985;-76
2022/01/14 07:25:13;;;;;;;;;;;1.10;92.70;;;;;;5016373;28;19987;-76
2022/01/14 07:27:39;;;;;;;;;;;1.10;92.70;;;;;;5018019;28;19914;-75
2022/01/14 07:30:05;;;;;;;;;;;1.00;92.70;;;;;;5017751;28;20304;-75
2022/01/14 07:32:31;;;;;;;;;;;1.10;92.80;;;;;;5025701;28;19960;-75
2022/01/14 07:34:56;;;;;;;;;;;1.00;92.70;;;;;;5018111;28;19916;-76
2022/01/14 07:37:22;;;;;;;;;;;1.00;92.60;;;;;;5016955;28;19921;-75
2022/01/14 07:39:48;;;;;;;;;;;1.00;92.60;;;;;;5015890;28;19913;-76
2022/01/14 07:42:14;;;;;;;;;;;1.00;92.60;;;;;;5016679;28;19920;-76
2022/01/14 07:44:39;;;;;;;;;;;0.90;92.60;;;;;;5017857;28;20395;-76
2022/01/14 07:47:06;;;;;;;;;;;0.90;92.60;;;;;;5024959;28;19963;-76
2022/01/14 07:49:31;;;;;;;;;;;0.90;92.50;;;;;;5017832;28;19910;-76
2022/01/14 07:51:57;;;;;;;;;;;0.90;92.50;;;;;;5017640;28;19921;-75
2022/01/14 07:54:23;;;;;;;;;;;0.90;92.50;;;;;;5016728;28;19917;-75
2022/01/14 07:56:52;;;;;;;;;;;0.80;92.50;;;;;;5017764;28;19914;-75
2022/01/14 07:59:23;;;;;;;;;;;0.80;92.50;;;;;;5017871;28;20411;-75
2022/01/14 08:01:50;;;;;;;;;;;0.80;92.50;;;;;;5016233;28;19913;-75
2022/01/14 08:04:18;;;;;;;;;;;0.80;92.50;;;;;;5017024;28;19921;-75
2022/01/14 08:06:47;;;;;;;;;;;0.80;92.60;;;;;;5021747;28;20011;-75
2022/01/14 08:09:13;;;;;;;;;;;0.80;92.60;;;;;;5010079;28;19909;-75
2022/01/14 08:11:39;;;;;;;;;;;0.80;92.60;;;;;;5018090;28;19913;-75
2022/01/14 08:14:04;;;;;;;;;;;0.80;92.70;;;;;;5015873;28;19917;-75
2022/01/14 08:16:30;;;;;;;;;;;0.80;92.80;;;;;;5017273;28;19921;-75
2022/01/14 08:18:56;;;;;;;;;;;0.80;92.90;;;;;;5020895;28;19936;-75
2022/01/14 08:21:21;;;;;;;;;;;0.80;92.90;;;;;;5022599;28;20388;-75
2022/01/14 08:23:47;;;;;;;;;;;0.80;92.90;;;;;;5017421;28;19910;-75
2022/01/14 08:26:13;;;;;;;;;;;0.80;92.90;;;;;;5016212;28;20032;-75
2022/01/14 08:28:39;;;;;;;;;;;0.90;93.00;;;;;;5009708;28;20360;-75
2022/01/14 08:31:05;;;;;;;;;;;0.90;93.00;;;;;;5017559;28;20372;-75
2022/01/14 08:33:30;;;;;;;;;;;0.90;93.10;;;;;;5019857;28;20380;-76
2022/01/14 08:35:56;;;;;;;;;;;0.90;93.10;;;;;;5022270;28;19949;-76
2022/01/14 08:38:22;;;;;;;;;;;0.90;93.20;;;;;;5019166;28;19929;-76
2022/01/14 08:40:48;;;;;;;;;;;1.00;93.40;;;;;;5021102;28;19920;-76
2022/01/14 08:43:13;;;;;;;;;;;1.00;93.50;;;;;;5020787;28;19920;-75
2022/01/14 08:45:39;;;;;;;;;;;1.10;93.50;;;;;;5020823;28;19913;-75
2022/01/14 08:48:05;;;;;;;;;;;1.10;93.60;;;;;;5025823;28;20574;-75
2022/01/14 08:50:32;;;;;;;;;;;1.10;93.60;;;;;;5020738;28;19913;-75
2022/01/14 08:52:59;;;;;;;;;;;1.20;93.60;;;;;;5021029;28;19909;-75
2022/01/14 08:55:25;;;;;;;;;;;1.20;93.60;;;;;;5020578;28;20423;-75
2022/01/14 08:57:51;;;;;;;;;;;1.30;93.70;;;;;;5020505;28;19920;-75
2022/01/14 09:00:18;;;;;;;;;;;1.30;93.70;;;;;;5020298;28;19910;-76
2022/01/14 09:02:44;;;;;;;;;;;1.40;93.70;;;;;;5006542;28;19917;-76
2022/01/14 09:05:10;;;;;;;;;;;1.50;93.80;;;;;;5020271;28;20369;-75
2022/01/14 09:07:37;;;;;;;;;;;1.50;93.90;;;;;;5018967;28;19919;-76
2022/01/14 09:10:03;;;;;;;;;;;1.50;93.90;;;;;;5019474;28;19913;-73
2022/01/14 09:12:29;;;;;;;;;;;1.60;94.00;;;;;;5020760;28;20000;-75
2022/01/14 09:14:55;;;;;;;;;;;1.60;94.00;;;;;;5023261;28;19960;-76
2022/01/14 09:17:21;;;;;;;;;;;1.70;94.00;;;;;;5020007;28;20056;-75
2022/01/14 09:19:46;;;;;;;;;;;1.70;93.90;;;;;;5019656;28;19949;-75
2022/01/14 09:22:17;;;;;;;;;;;1.70;93.90;;;;;;5019671;28;19940;-75
2022/01/14 09:24:44;;;;;;;;;;;1.70;93.90;;;;;;5015603;28;20377;-75
2022/01/14 09:27:10;;;;;;;;;;;1.70;93.90;;;;;;5014223;28;19972;-75
2022/01/14 09:29:35;;;;;;;;;;;1.70;93.90;;;;;;5023604;28;19914;-75
2022/01/14 09:32:01;;;;;;;;;;;1.70;93.90;;;;;;5020705;28;20315;-75
2022/01/14 09:34:27;;;;;;;;;;;1.70;93.90;;;;;;5006321;28;20300;-75
2022/01/14 09:36:52;;;;;;;;;;;1.60;93.90;;;;;;5023579;28;19924;-75
2022/01/14 09:39:18;;;;;;;;;;;1.60;94.00;;;;;;5014716;28;19910;-76
2022/01/14 09:41:45;;;;;;;;;;;1.60;94.00;;;;;;5020665;28;19909;-74
2022/01/14 09:44:13;;;;;;;;;;;1.60;94.00;;;;;;5016774;28;20282;-75
2022/01/14 09:46:39;;;;;;;;;;;1.60;94.10;;;;;;5025234;28;19951;-75
2022/01/14 09:49:07;;;;;;;;;;;1.70;94.10;;;;;;5023124;28;19909;-76
2022/01/14 09:51:33;;;;;;;;;;;1.60;94.10;;;;;;5020114;28;19913;-75
2022/01/14 09:53:59;;;;;;;;;;;1.70;94.20;;;;;;5019889;28;20526;-75
2022/01/14 09:56:24;;;;;;;;;;;1.70;94.20;;;;;;5011538;28;19910;-74
2022/01/14 09:58:51;;;;;;;;;;;1.80;94.20;;;;;;5019922;28;19914;-75
2022/01/14 10:01:18;;;;;;;;;;;1.80;94.20;;;;;;5016848;28;20004;-75
2022/01/14 10:03:53;;;;;;;;;;;1.90;94.10;;;;;;5014625;28;19913;-75
2022/01/14 10:06:36;;;;;;;;;;;2.00;94.10;;;;;;5017514;28;19909;-75
2022/01/14 10:09:04;;;;;;;;;;;2.10;94.10;;;;;;5011005;28;19990;-76
2022/01/14 10:11:35;;;;;;;;;;;2.10;94.10;;;;;;5017227;28;19913;-76
2022/01/14 10:14:05;;;;;;;;;;;2.10;94.00;;;;;;5016855;28;19914;-75
2022/01/14 10:16:31;;;;;;;;;;;2.20;93.90;;;;;;5007759;28;20023;-76
2022/01/14 10:18:56;;;;;;;;;;;2.20;93.90;;;;;;5020099;28;19956;-76
2022/01/14 10:21:29;;;;;;;;;;;2.20;94.00;;;;;;5018499;28;20388;-76
2022/01/14 10:23:56;;;;;;;;;;;2.20;93.90;;;;;;5016989;28;19921;-76
2022/01/14 10:26:21;;;;;;;;;;;2.20;93.80;;;;;;5016391;28;19925;-76
2022/01/14 10:29:05;;;;;;;;;;;2.20;93.70;;;;;;5019089;28;19917;-76
2022/01/14 10:31:32;;;;;;;;;;;2.30;93.80;;;;;;5019406;28;19932;-76
2022/01/14 10:34:11;;;;;;;;;;;2.30;94.00;;;;;;5022972;28;19919;-75
2022/01/14 10:36:38;;;;;;;;;;;2.30;93.80;;;;;;5023963;28;19964;-78
2022/01/14 10:39:17;;;;;;;;;;;2.30;93.80;;;;;;5028993;28;19928;-75
2022/01/14 10:41:43;;;;;;;;;;;2.30;93.80;;;;;;5028853;28;20288;-75
2022/01/14 10:44:28;;;;;;;;;;;2.30;93.80;;;;;;5022423;28;19987;-74
2022/01/14 10:47:13;;;;;;;;;;;2.40;93.80;;;;;;5013247;28;20384;-75
2022/01/14 10:49:39;;;;;;;;;;;2.40;93.80;;;;;;5007717;28;19909;-73
2022/01/14 10:52:12;;;;;;;;;;;2.40;93.70;;;;;;5020028;28;19943;-73
2022/01/14 10:54:39;;;;;;;;;;;2.40;93.80;;;;;;5018364;28;19909;-74
2022/01/14 10:57:12;;;;;;;;;;;2.50;93.80;;;;;;5017891;28;19913;-73
2022/01/14 10:59:38;;;;;;;;;;;2.50;93.70;;;;;;5009222;28;19935;-73
2022/01/14 11:02:24;;;;;;;;;;;2.50;93.70;;;;;;5015561;28;20380;-74
2022/01/14 11:04:59;;;;;;;;;;;2.60;93.70;;;;;;5021759;28;19920;-72
2022/01/14 11:07:25;;;;;;;;;;;2.60;93.60;;;;;;5022163;28;19931;-74
2022/01/14 11:09:52;;;;;;;;;;;2.70;93.50;;;;;;5017094;28;19909;-74
2022/01/14 11:12:18;;;;;;;;;;;2.70;93.50;;;;;;5018542;28;19909;-72
2022/01/14 11:14:44;;;;;;;;;;;2.70;93.40;;;;;;5017483;28;20392;-73
2022/01/14 11:17:10;;;;;;;;;;;2.80;93.30;;;;;;5018461;28;19983;-73
2022/01/14 11:19:36;;;;;;;;;;;2.80;93.20;;;;;;5016119;28;20389;-72
2022/01/14 11:24:46;;;;;;;;;;;2.80;93.10;;;;;;5017400;28;20434;-73
2022/01/14 11:27:13;;;;;;;;;;;2.90;93.10;;;;;;5018405;28;19922;-74
2022/01/14 11:29:40;;;;;;;;;;;2.90;93.10;;;;;;5018158;28;20008;-78
2022/01/14 11:32:08;;;;;;;;;;;3.00;93.10;;;;;;5021383;28;19909;-75
2022/01/14 11:34:33;;;;;;;;;;;3.00;92.90;;;;;;5018409;28;20395;-74
2022/01/14 11:37:00;;;;;;;;;;;3.00;92.70;;;;;;5016377;28;20011;-73
2022/01/14 11:39:27;;;;;;;;;;;3.10;92.60;;;;;;5017943;28;19948;-73
2022/01/14 11:41:55;;;;;;;;;;;3.30;93.00;;;;;;5008595;28;20012;-73
2022/01/14 11:44:40;;;;;;;;;;;3.50;92.90;;;;;;5008075;28;19964;-73
2022/01/14 11:47:05;;;;;;;;;;;3.60;92.40;;;;;;5022706;28;20308;-73
2022/01/14 11:49:34;;;;;;;;;;;3.60;92.00;;;;;;5034752;28;19972;-73
2022/01/14 11:52:00;;;;;;;;;;;3.60;92.30;;;;;;5035066;28;19917;-73
2022/01/14 11:54:42;;;;;;;;;;;3.70;92.30;;;;;;5016764;28;20024;-75
2022/01/14 11:57:09;;;;;;;;;;;3.80;92.50;;;;;;5016281;28;19913;-73
2022/01/14 11:59:35;;;;;;;;;;;3.90;92.30;;;;;;5017908;28;19909;-76
2022/01/14 12:02:00;;;;;;;;;;;4.00;92.00;;;;;;5017984;28;19913;-74
2022/01/14 12:04:45;;;;;;;;;;;4.00;91.90;;;;;;5016614;28;19917;-77
2022/01/14 12:07:11;;;;;;;;;;;4.00;91.70;;;;;;5013348;28;19910;-76
2022/01/14 12:09:56;;;;;;;;;;;3.90;91.40;;;;;;5011347;28;19916;-73
2022/01/14 12:12:30;;;;;;;;;;;3.90;91.30;;;;;;5016084;28;19917;-79
2022/01/14 12:14:58;;;;;;;;;;;3.80;91.20;;;;;;5017948;28;19917;-76
2022/01/14 12:17:37;;;;;;;;;;;3.80;91.40;;;;;;5016651;28;19917;-73
2022/01/14 12:20:09;;;;;;;;;;;3.80;91.50;;;;;;5022466;28;19914;-73
2022/01/14 12:22:35;;;;;;;;;;;3.80;91.70;;;;;;5016445;28;19910;-73
2022/01/14 12:25:01;;;;;;;;;;;3.90;91.70;;;;;;5017812;28;19916;-76
2022/01/14 12:27:28;;;;;;;;;;;3.90;91.40;;;;;;5017798;28;19914;-75
2022/01/14 12:30:03;;;;;;;;;;;3.90;91.00;;;;;;5004800;28;19909;-76
2022/01/14 12:32:28;;;;;;;;;;;3.80;90.80;;;;;;5018384;28;20341;-77
2022/01/14 12:34:54;;;;;;;;;;;3.70;90.70;;;;;;5017536;28;20060;-74
2022/01/14 12:37:22;;;;;;;;;;;3.60;90.80;;;;;;5022036;28;19945;-74
2022/01/14 12:39:48;;;;;;;;;;;3.60;90.90;;;;;;5023618;28;19913;-75
2022/01/14 12:42:14;;;;;;;;;;;3.60;91.10;;;;;;5017530;28;19917;-73
2022/01/14 12:44:40;;;;;;;;;;;3.60;91.00;;;;;;5027154;28;20376;-76
2022/01/14 12:47:08;;;;;;;;;;;3.60;90.90;;;;;;5024657;28;19915;-72
2022/01/14 12:49:35;;;;;;;;;;;3.60;90.80;;;;;;5022534;28;20324;-83
2022/01/14 12:52:05;;;;;;;;;;;3.50;90.70;;;;;;5016433;28;19960;-79
2022/01/14 12:54:31;;;;;;;;;;;3.60;90.80;;;;;;5009594;28;20323;-80
2022/01/14 12:56:57;;;;;;;;;;;3.50;91.10;;;;;;5019248;28;19921;-77
2022/01/14 12:59:24;;;;;;;;;;;3.50;90.80;;;;;;5023304;28;20498;-80
2022/01/14 13:01:51;;;;;;;;;;;3.50;90.80;;;;;;5010128;28;19917;-78
2022/01/14 13:04:18;;;;;;;;;;;3.50;90.80;;;;;;5005315;28;19949;-79
2022/01/14 13:06:46;;;;;;;;;;;3.50;90.90;;;;;;5015577;28;19918;-82
2022/01/14 13:09:22;;;;;;;;;;;3.50;90.90;;;;;;5015120;28;20495;-82
2022/01/14 13:11:49;;;;;;;;;;;3.40;90.90;;;;;;5020704;28;19921;-87
2022/01/14 13:14:18;;;;;;;;;;;3.40;91.00;;;;;;5026042;28;20356;-88
2022/01/14 13:16:46;;;;;;;;;;;3.40;91.10;;;;;;5027499;28;19914;-83
2022/01/14 13:19:24;;;;;;;;;;;3.40;91.00;;;;;;5017902;28;19914;-83
2022/01/14 13:21:50;;;;;;;;;;;3.40;90.90;;;;;;5012974;28;19910;-82
2022/01/14 13:24:23;;;;;;;;;;;3.30;90.80;;;;;;5022076;28;19917;-81
2022/01/14 13:27:03;;;;;;;;;;;3.40;91.00;;;;;;5021526;28;19921;-76
2022/01/14 13:29:40;;;;;;;;;;;3.30;91.10;;;;;;5011937;28;19913;-76
2022/01/14 13:32:06;;;;;;;;;;;3.30;91.00;;;;;;5025920;28;19909;-73
2022/01/14 13:34:32;;;;;;;;;;;3.30;91.00;;;;;;5015000;28;20309;-76
2022/01/14 13:36:58;;;;;;;;;;;3.30;91.10;;;;;;5012260;28;19925;-76
2022/01/14 13:39:24;;;;;;;;;;;3.40;91.10;;;;;;5017141;28;19914;-81
2022/01/14 13:41:50;;;;;;;;;;;3.40;91.20;;;;;;5018114;28;19924;-89
2022/01/14 13:44:20;;;;;;;;;;;3.40;91.20;;;;;;5021745;28;20043;-84
2022/01/14 13:46:49;;;;;;;;;;;3.40;91.10;;;;;;5022952;28;19924;-80
2022/01/14 13:49:20;;;;;;;;;;;3.40;91.10;;;;;;5015810;28;19913;-78
2022/01/14 13:51:59;;;;;;;;;;;3.40;91.20;;;;;;5013877;28;20455;-79
2022/01/14 13:54:24;;;;;;;;;;;3.40;91.20;;;;;;5008921;28;19914;-79
2022/01/14 13:56:50;;;;;;;;;;;3.40;91.20;;;;;;5016968;28;19913;-80
2022/01/14 13:59:19;;;;;;;;;;;3.40;91.20;;;;;;5028209;28;20281;-79
2022/01/14 14:01:59;;;;;;;;;;;3.40;91.20;;;;;;5021405;28;19909;-81
2022/01/14 14:04:26;;;;;;;;;;;3.40;91.10;;;;;;5012620;28;19913;-86
2022/01/14 14:07:03;;;;;;;;;;;3.40;91.10;;;;;;5010415;28;19925;-81
2022/01/14 14:09:35;;;;;;;;;;;3.40;91.10;;;;;;5011808;28;19913;-79
2022/01/14 14:12:36;;;;;;;;;;;3.50;91.20;;;;;;5015924;28;20052;-89
2022/01/14 14:17:43;;;;;;;;;;;3.40;90.90;;;;;;5009864;28;20016;-80
2022/01/14 14:20:08;;;;;;;;;;;3.40;90.80;;;;;;5010289;28;19956;-80
2022/01/14 14:22:36;;;;;;;;;;;3.40;90.80;;;;;;5010640;28;20411;-80
2022/01/14 14:28:08;;;;;;;;;;;3.40;90.80;;;;;;5009388;28;19918;-80
2022/01/14 14:30:40;;;;;;;;;;;3.40;90.90;;;;;;5011817;28;19921;-80
2022/01/14 14:33:06;;;;;;;;;;;3.40;90.90;;;;;;5010406;28;19913;-83
2022/01/14 14:35:36;;;;;;;;;;;3.40;90.90;;;;;;5011417;28;19913;-81
2022/01/14 14:38:03;;;;;;;;;;;3.30;90.80;;;;;;5009976;28;19925;-79
2022/01/14 14:40:31;;;;;;;;;;;3.30;90.80;;;;;;5010208;28;19987;-81
2022/01/14 14:42:59;;;;;;;;;;;3.30;90.80;;;;;;5012287;28;20349;-82
2022/01/14 14:45:25;;;;;;;;;;;3.30;90.90;;;;;;5015129;28;19914;-82
2022/01/14 14:47:51;;;;;;;;;;;3.30;90.90;;;;;;5012245;28;19925;-82
2022/01/14 14:50:18;;;;;;;;;;;3.30;91.00;;;;;;5012153;28;19941;-84
2022/01/14 14:52:44;;;;;;;;;;;3.20;91.00;;;;;;5009559;28;20280;-81
2022/01/14 14:55:15;;;;;;;;;;;3.20;91.00;;;;;;5010864;28;19960;-81
2022/01/14 14:57:42;;;;;;;;;;;3.20;91.00;;;;;;5010215;28;19917;-83